Time;durP1;ratioP1;P1;durP2;ratioP2;P2;SDS_P1;SDS_P2;PMS_P1;PMS_P2;Temp;Humidity;BMP_temperature;BMP_pressure;BME280_temperature;BME280_humidity;BME280_pressure;Samples;Min_cycle;Max_cycle;Signal;HPM_P1;HPM_P2
2023/09/13 00:00:52;;;;;;;0.10;0.10;;;;;;;;;;6288165;28;20398;-83
2023/09/13 00:03:52;;;;;;;0.10;0.10;;;;;;;;;;6294539;28;20067;-83
2023/09/13 00:06:53;;;;;;;0.10;0.10;;;;;;;;;;6271294;28;20041;-83
2023/09/13 00:09:53;;;;;;;0.10;0.10;;;;;;;;;;6292441;28;20150;-83
2023/09/13 00:12:53;;;;;;;0.10;0.10;;;;;;;;;;6274785;28;20047;-83
2023/09/13 00:15:53;;;;;;;0.10;0.10;;;;;;;;;;6286348;28;20115;-83
2023/09/13 00:18:53;;;;;;;0.10;0.10;;;;;;;;;;6292217;28;20027;-83
2023/09/13 00:21:54;;;;;;;0.10;0.10;;;;;;;;;;6293961;28;20514;-83
2023/09/13 00:24:54;;;;;;;0.10;0.10;;;;;;;;;;6287351;28;20502;-82
2023/09/13 00:27:54;;;;;;;0.10;0.10;;;;;;;;;;6293484;28;20409;-83
2023/09/13 00:30:54;;;;;;;0.10;0.10;;;;;;;;;;6286050;28;20028;-83
2023/09/13 00:33:55;;;;;;;0.10;0.10;;;;;;;;;;6296895;28;20024;-83
2023/09/13 00:36:55;;;;;;;0.10;0.10;;;;;;;;;;6305000;28;20475;-83
2023/09/13 00:39:55;;;;;;;0.10;0.10;;;;;;;;;;6294540;28;20021;-82
2023/09/13 00:42:55;;;;;;;0.10;0.10;;;;;;;;;;6263336;28;20043;-82
2023/09/13 00:45:56;;;;;;;0.10;0.10;;;;;;;;;;6297284;28;20062;-82
2023/09/13 00:48:56;;;;;;;0.10;0.10;;;;;;;;;;6298468;28;20500;-83
2023/09/13 00:51:57;;;;;;;0.10;0.10;;;;;;;;;;6289672;28;20020;-82
2023/09/13 00:54:58;;;;;;;0.10;0.10;;;;;;;;;;6290622;28;20047;-83
2023/09/13 00:57:58;;;;;;;0.10;0.10;;;;;;;;;;6269311;28;20040;-82
2023/09/13 01:00:59;;;;;;;0.10;0.10;;;;;;;;;;6291458;28;20029;-83
2023/09/13 01:04:01;;;;;;;0.10;0.10;;;;;;;;;;6302441;28;20039;-83
2023/09/13 01:07:01;;;;;;;0.10;0.10;;;;;;;;;;6293997;28;20047;-83
2023/09/13 01:10:03;;;;;;;0.10;0.10;;;;;;;;;;6261906;28;20044;-83
2023/09/13 01:13:04;;;;;;;0.10;0.10;;;;;;;;;;6294862;28;20566;-83
2023/09/13 01:16:10;;;;;;;0.10;0.10;;;;;;;;;;6286313;28;20029;-83
2023/09/13 01:19:29;;;;;;;0.10;0.10;;;;;;;;;;6286892;28;20078;-83
2023/09/13 01:22:29;;;;;;;0.10;0.10;;;;;;;;;;6268726;28;20048;-83
2023/09/13 01:25:38;;;;;;;0.10;0.10;;;;;;;;;;6284437;28;20024;-83
2023/09/13 01:28:40;;;;;;;0.10;0.10;;;;;;;;;;6277035;28;20399;-83
2023/09/13 01:31:41;;;;;;;0.10;0.10;;;;;;;;;;6298643;28;20047;-83
2023/09/13 01:34:41;;;;;;;0.10;0.10;;;;;;;;;;6284774;28;20542;-83
2023/09/13 01:37:41;;;;;;;0.10;0.10;;;;;;;;;;6270757;28;20566;-85
2023/09/13 01:40:43;;;;;;;0.10;0.10;;;;;;;;;;6272761;28;20009;-85
2023/09/13 01:43:44;;;;;;;0.10;0.10;;;;;;;;;;6271345;28;20016;-85
2023/09/13 01:46:45;;;;;;;0.10;0.10;;;;;;;;;;6296144;28;20497;-85
2023/09/13 01:49:46;;;;;;;0.10;0.10;;;;;;;;;;6289991;28;20020;-85
2023/09/13 01:52:46;;;;;;;0.10;0.10;;;;;;;;;;6288995;28;20052;-85
2023/09/13 01:55:46;;;;;;;0.10;0.10;;;;;;;;;;6289602;28;20017;-85
2023/09/13 01:58:48;;;;;;;0.10;0.10;;;;;;;;;;6280051;28;20565;-85
2023/09/13 02:01:48;;;;;;;0.10;0.10;;;;;;;;;;6274281;28;20024;-85
2023/09/13 02:04:49;;;;;;;0.10;0.10;;;;;;;;;;6273768;28;20419;-85
2023/09/13 02:07:49;;;;;;;0.10;0.10;;;;;;;;;;6288946;28;20568;-85
2023/09/13 02:10:49;;;;;;;0.10;0.10;;;;;;;;;;6284224;28;20090;-85
2023/09/13 02:13:50;;;;;;;0.10;0.10;;;;;;;;;;6286081;28;20028;-84
2023/09/13 02:16:50;;;;;;;0.10;0.10;;;;;;;;;;6277917;28;20565;-85
2023/09/13 02:19:51;;;;;;;0.10;0.10;;;;;;;;;;6294565;28;20374;-84
2023/09/13 02:22:51;;;;;;;0.10;0.10;;;;;;;;;;6276241;28;20402;-84
2023/09/13 02:25:51;;;;;;;0.10;0.10;;;;;;;;;;6294269;28;20028;-85
2023/09/13 02:28:52;;;;;;;0.10;0.10;;;;;;;;;;6291107;28;20463;-85
2023/09/13 02:31:52;;;;;;;0.10;0.10;;;;;;;;;;6299916;28;20104;-86
2023/09/13 02:34:53;;;;;;;0.10;0.10;;;;;;;;;;6251696;28;20020;-83
2023/09/13 02:37:53;;;;;;;0.10;0.10;;;;;;;;;;6286654;28;20079;-86
2023/09/13 02:40:53;;;;;;;0.10;0.10;;;;;;;;;;6273364;28;20028;-86
2023/09/13 02:43:53;;;;;;;0.10;0.10;;;;;;;;;;6273864;28;20020;-86
2023/09/13 02:46:53;;;;;;;0.10;0.10;;;;;;;;;;6290596;28;20028;-84
2023/09/13 02:49:54;;;;;;;0.10;0.10;;;;;;;;;;6272726;28;20020;-84
2023/09/13 02:52:54;;;;;;;0.10;0.10;;;;;;;;;;6280333;28;20478;-84
2023/09/13 02:56:02;;;;;;;0.10;0.10;;;;;;;;;;6275619;28;20020;-84
2023/09/13 02:59:02;;;;;;;0.10;0.10;;;;;;;;;;6274667;28;20021;-84
2023/09/13 03:02:02;;;;;;;0.10;0.10;;;;;;;;;;6291774;28;20033;-84
2023/09/13 03:05:05;;;;;;;0.10;0.10;;;;;;;;;;6275060;28;20032;-85
2023/09/13 03:08:05;;;;;;;0.10;0.10;;;;;;;;;;6279836;28;20040;-84
2023/09/13 03:11:09;;;;;;;0.10;0.10;;;;;;;;;;6293601;28;20027;-84
2023/09/13 03:14:10;;;;;;;0.10;0.10;;;;;;;;;;6281500;28;20090;-84
2023/09/13 03:17:13;;;;;;;0.10;0.10;;;;;;;;;;6292787;28;20028;-85
2023/09/13 03:20:13;;;;;;;0.17;0.17;;;;;;;;;;6285155;28;20027;-85
2023/09/13 03:23:13;;;;;;;0.10;0.10;;;;;;;;;;6281783;28;20025;-83
2023/09/13 03:26:15;;;;;;;0.10;0.10;;;;;;;;;;6297485;28;20494;-83
2023/09/13 03:29:15;;;;;;;;;;;;;;;;;;6298479;28;20013;-82
2023/09/13 03:32:15;;;;;;;0.10;0.10;;;;;;;;;;6299197;28;19937;-82
2023/09/13 03:35:16;;;;;;;0.10;0.10;;;;;;;;;;6269535;28;20027;-83
2023/09/13 03:38:16;;;;;;;0.10;0.10;;;;;;;;;;6284839;28;20111;-83
2023/09/13 03:41:18;;;;;;;0.10;0.10;;;;;;;;;;6282603;28;20120;-83
2023/09/13 03:44:18;;;;;;;0.13;0.13;;;;;;;;;;6266535;28;20040;-83
2023/09/13 03:47:18;;;;;;;0.13;0.13;;;;;;;;;;6294591;28;20012;-83
2023/09/13 03:50:19;;;;;;;0.10;0.10;;;;;;;;;;6302119;28;20036;-83
2023/09/13 03:53:19;;;;;;;0.10;0.10;;;;;;;;;;6288290;28;20545;-83
2023/09/13 03:56:19;;;;;;;0.10;0.10;;;;;;;;;;6291444;28;20530;-85
2023/09/13 03:59:19;;;;;;;0.10;0.10;;;;;;;;;;6275088;28;20550;-85
2023/09/13 04:02:19;;;;;;;0.10;0.10;;;;;;;;;;6303345;28;20028;-84
2023/09/13 04:05:20;;;;;;;0.10;0.10;;;;;;;;;;6269784;28;20028;-84
2023/09/13 04:08:20;;;;;;;0.10;0.10;;;;;;;;;;6271942;28;20047;-84
2023/09/13 04:11:20;;;;;;;0.10;0.10;;;;;;;;;;6270935;28;20025;-84
2023/09/13 04:14:21;;;;;;;0.10;0.10;;;;;;;;;;6307954;28;20043;-86
2023/09/13 04:17:21;;;;;;;0.10;0.10;;;;;;;;;;6294793;28;20028;-86
2023/09/13 04:20:22;;;;;;;0.10;0.10;;;;;;;;;;6304240;28;20510;-84
2023/09/13 04:23:22;;;;;;;0.20;0.20;;;;;;;;;;6282729;28;20032;-84
2023/09/13 04:26:23;;;;;;;0.20;0.20;;;;;;;;;;6289923;28;20372;-86
2023/09/13 04:29:23;;;;;;;0.10;0.10;;;;;;;;;;6301165;28;20024;-86
2023/09/13 04:32:26;;;;;;;0.13;0.13;;;;;;;;;;6290932;28;20028;-86
2023/09/13 04:35:26;;;;;;;0.10;0.10;;;;;;;;;;6291005;28;20479;-86
2023/09/13 04:38:27;;;;;;;0.10;0.10;;;;;;;;;;6266784;28;20044;-85
2023/09/13 04:41:27;;;;;;;0.10;0.10;;;;;;;;;;6265033;28;20029;-85
2023/09/13 04:44:27;;;;;;;0.10;0.10;;;;;;;;;;6275701;28;20025;-85
2023/09/13 04:47:28;;;;;;;0.10;0.10;;;;;;;;;;6297097;28;20063;-85
2023/09/13 04:50:28;;;;;;;0.10;0.10;;;;;;;;;;6297953;28;20016;-85
2023/09/13 04:53:28;;;;;;;0.10;0.10;;;;;;;;;;6279374;28;20044;-85
2023/09/13 04:56:29;;;;;;;0.10;0.10;;;;;;;;;;6296947;28;20023;-86
2023/09/13 04:59:49;;;;;;;0.10;0.10;;;;;;;;;;6277355;28;20033;-86
2023/09/13 05:02:50;;;;;;;0.10;0.10;;;;;;;;;;6301148;28;20051;-86
2023/09/13 05:05:50;;;;;;;0.10;0.10;;;;;;;;;;6287396;28;20036;-85
2023/09/13 05:08:52;;;;;;;0.10;0.10;;;;;;;;;;6290239;28;20020;-84
2023/09/13 05:11:53;;;;;;;0.10;0.10;;;;;;;;;;6286764;28;20021;-85
2023/09/13 05:14:53;;;;;;;0.10;0.10;;;;;;;;;;6266330;28;20036;-85
2023/09/13 05:17:53;;;;;;;0.10;0.10;;;;;;;;;;6284855;28;20016;-85
2023/09/13 05:20:53;;;;;;;0.10;0.10;;;;;;;;;;6272398;28;20028;-84
2023/09/13 05:23:54;;;;;;;0.10;0.10;;;;;;;;;;6273037;28;20024;-85
2023/09/13 05:26:54;;;;;;;0.10;0.10;;;;;;;;;;6286118;28;20565;-84
2023/09/13 05:29:54;;;;;;;0.10;0.10;;;;;;;;;;6282938;28;20533;-84
2023/09/13 05:32:54;;;;;;;0.10;0.10;;;;;;;;;;6276847;28;20024;-84
2023/09/13 05:35:55;;;;;;;0.10;0.10;;;;;;;;;;6273285;28;20027;-85
2023/09/13 05:38:55;;;;;;;0.10;0.10;;;;;;;;;;6271813;28;20028;-85
2023/09/13 05:41:55;;;;;;;0.10;0.10;;;;;;;;;;6277716;28;20032;-85
2023/09/13 05:44:56;;;;;;;0.10;0.10;;;;;;;;;;6297102;28;20447;-84
2023/09/13 05:47:59;;;;;;;0.10;0.10;;;;;;;;;;6288838;28;20024;-85
2023/09/13 05:51:00;;;;;;;0.10;0.10;;;;;;;;;;6292801;28;20021;-85
2023/09/13 05:54:01;;;;;;;0.10;0.10;;;;;;;;;;6289414;28;20040;-84
2023/09/13 05:57:02;;;;;;;0.00;0.00;;;;;;;;;;6301657;28;20020;-84
2023/09/13 06:00:02;;;;;;;0.10;0.10;;;;;;;;;;6296225;28;20136;-84
2023/09/13 06:03:02;;;;;;;0.00;0.00;;;;;;;;;;6266840;28;20115;-84
2023/09/13 06:06:03;;;;;;;0.00;0.00;;;;;;;;;;6300107;28;20037;-85
2023/09/13 06:09:03;;;;;;;0.00;0.00;;;;;;;;;;6278643;28;20098;-84
2023/09/13 06:12:04;;;;;;;0.10;0.10;;;;;;;;;;6277610;28;20016;-85
2023/09/13 06:15:04;;;;;;;0.00;0.00;;;;;;;;;;6281221;28;20021;-85
2023/09/13 06:18:05;;;;;;;0.00;0.00;;;;;;;;;;6272229;28;20098;-88
2023/09/13 06:21:05;;;;;;;0.00;0.00;;;;;;;;;;6282627;28;20441;-88
2023/09/13 06:24:06;;;;;;;0.00;0.00;;;;;;;;;;6288851;28;20028;-89
2023/09/13 06:27:06;;;;;;;0.00;0.00;;;;;;;;;;6287224;28;20028;-89
2023/09/13 06:30:06;;;;;;;0.00;0.00;;;;;;;;;;6295223;28;20455;-89
2023/09/13 06:33:08;;;;;;;0.00;0.00;;;;;;;;;;6297700;28;20031;-88
2023/09/13 06:36:08;;;;;;;0.00;0.00;;;;;;;;;;6298425;28;20052;-89
2023/09/13 06:39:09;;;;;;;0.00;0.00;;;;;;;;;;6306160;28;20024;-88
2023/09/13 06:42:09;;;;;;;0.00;0.00;;;;;;;;;;6281861;28;20463;-89
2023/09/13 06:45:09;;;;;;;0.00;0.00;;;;;;;;;;6262608;28;20127;-88
2023/09/13 06:48:09;;;;;;;0.00;0.00;;;;;;;;;;6279468;28;20395;-89
2023/09/13 06:51:09;;;;;;;0.00;0.00;;;;;;;;;;6283956;28;20471;-89
2023/09/13 06:54:11;;;;;;;0.00;0.00;;;;;;;;;;6283922;28;20031;-89
2023/09/13 06:57:11;;;;;;;;;;;;;;;;;;6298318;28;20032;-89
2023/09/13 07:00:12;;;;;;;0.00;0.00;;;;;;;;;;6292201;28;19966;-88
2023/09/13 07:03:12;;;;;;;0.00;0.00;;;;;;;;;;6285136;28;20287;-89
2023/09/13 07:06:12;;;;;;;0.00;0.00;;;;;;;;;;6282530;28;20040;-89
2023/09/13 07:09:12;;;;;;;;;;;;;;;;;;6299265;28;20466;-89
2023/09/13 07:12:12;;;;;;;0.00;0.00;;;;;;;;;;6264744;28;19905;-89
2023/09/13 07:15:13;;;;;;;;;;;;;;;;;;6293204;28;20876;-89
2023/09/13 07:18:14;;;;;;;0.00;0.00;;;;;;;;;;6266316;28;20043;-88
2023/09/13 07:21:14;;;;;;;0.00;0.00;;;;;;;;;;6296976;28;20028;-89
2023/09/13 07:24:15;;;;;;;;;;;;;;;;;;6285880;28;20027;-89
2023/09/13 07:27:15;;;;;;;0.00;0.00;;;;;;;;;;6285391;28;19909;-84
2023/09/13 07:30:16;;;;;;;0.00;0.00;;;;;;;;;;6286136;28;20121;-86
2023/09/13 07:33:16;;;;;;;;;;;;;;;;;;6272626;28;20029;-85
2023/09/13 07:36:17;;;;;;;0.00;0.00;;;;;;;;;;6284300;28;19914;-84
2023/09/13 07:39:17;;;;;;;;;;;;;;;;;;6284759;28;20030;-84
2023/09/13 07:42:18;;;;;;;0.00;0.00;;;;;;;;;;6278380;28;19905;-85
2023/09/13 07:45:18;;;;;;;;;;;;;;;;;;6292847;28;20019;-84
2023/09/13 07:48:18;;;;;;;0.00;0.00;;;;;;;;;;6278229;28;19908;-84
2023/09/13 07:51:18;;;;;;;;;;;;;;;;;;6300349;28;20021;-85
2023/09/13 07:54:18;;;;;;;0.00;0.00;;;;;;;;;;6306456;28;20269;-84
2023/09/13 07:57:18;;;;;;;;;;;;;;;;;;6271604;28;20079;-84
2023/09/13 08:00:19;;;;;;;0.00;0.00;;;;;;;;;;6269001;28;19955;-84
2023/09/13 08:03:19;;;;;;;;;;;;;;;;;;6271627;28;20054;-85
2023/09/13 08:06:22;;;;;;;0.00;0.00;;;;;;;;;;6283751;28;19916;-85
2023/09/13 08:09:22;;;;;;;0.00;0.00;;;;;;;;;;6281409;28;20293;-84
2023/09/13 08:12:22;;;;;;;;;;;;;;;;;;6294892;28;20020;-84
2023/09/13 08:15:22;;;;;;;0.00;0.00;;;;;;;;;;6304088;28;19909;-84
2023/09/13 08:18:22;;;;;;;;;;;;;;;;;;6274023;28;20151;-85
2023/09/13 08:21:23;;;;;;;0.00;0.00;;;;;;;;;;6278534;28;19931;-84
2023/09/13 08:24:23;;;;;;;0.00;0.00;;;;;;;;;;6292375;28;20064;-85
2023/09/13 08:27:23;;;;;;;0.00;0.00;;;;;;;;;;6266420;28;20306;-84
2023/09/13 08:30:26;;;;;;;;;;;;;;;;;;6271226;28;20073;-84
2023/09/13 08:33:28;;;;;;;0.00;0.00;;;;;;;;;;6304633;28;19912;-84
2023/09/13 08:36:28;;;;;;;;;;;;;;;;;;6290782;28;20478;-90
2023/09/13 08:39:28;;;;;;;0.00;0.00;;;;;;;;;;6278429;28;19905;-90
2023/09/13 08:42:28;;;;;;;;;;;;;;;;;;6293521;28;20147;-89
2023/09/13 08:45:30;;;;;;;0.00;0.00;;;;;;;;;;6297125;28;19912;-90
2023/09/13 08:48:31;;;;;;;0.00;0.00;;;;;;;;;;6272530;28;20017;-90
2023/09/13 08:51:32;;;;;;;0.00;0.00;;;;;;;;;;6296471;28;20017;-90
2023/09/13 08:54:32;;;;;;;;;;;;;;;;;;6278229;28;20021;-90
2023/09/13 08:57:33;;;;;;;0.00;0.00;;;;;;;;;;6291274;28;20360;-90
2023/09/13 09:00:37;;;;;;;0.00;0.00;;;;;;;;;;6264565;28;20032;-90
2023/09/13 09:03:37;;;;;;;0.00;0.00;;;;;;;;;;6277829;28;20020;-90
2023/09/13 09:06:37;;;;;;;;;;;;;;;;;;6301942;28;20138;-90
2023/09/13 09:09:37;;;;;;;0.00;0.00;;;;;;;;;;6278222;28;19908;-90
2023/09/13 09:12:37;;;;;;;;;;;;;;;;;;6288824;28;20021;-90
2023/09/13 09:15:39;;;;;;;0.00;0.00;;;;;;;;;;6268965;28;20055;-90
2023/09/13 09:18:42;;;;;;;0.00;0.00;;;;;;;;;;6272454;28;20067;-90
2023/09/13 09:21:42;;;;;;;0.00;0.00;;;;;;;;;;6271456;28;20021;-90
2023/09/13 09:24:43;;;;;;;;;;;;;;;;;;6296870;28;20036;-90
2023/09/13 09:27:44;;;;;;;0.00;0.00;;;;;;;;;;6292953;28;20255;-91
2023/09/13 09:30:44;;;;;;;;;;;;;;;;;;6282498;28;20027;-90
2023/09/13 09:33:45;;;;;;;0.00;0.00;;;;;;;;;;6282585;28;19912;-90
2023/09/13 09:36:46;;;;;;;;;;;;;;;;;;6274397;28;20051;-90
2023/09/13 09:39:47;;;;;;;;;;;;;;;;;;6293739;28;19916;-90
2023/09/13 09:42:54;;;;;;;0.00;0.00;;;;;;;;;;6276118;28;19999;-91
2023/09/13 09:45:54;;;;;;;0.00;0.00;;;;;;;;;;6285469;28;20031;-85
2023/09/13 09:48:57;;;;;;;;;;;;;;;;;;6300924;28;20692;-86
2023/09/13 09:51:59;;;;;;;0.00;0.00;;;;;;;;;;6282452;28;19915;-85
2023/09/13 09:54:59;;;;;;;0.00;0.00;;;;;;;;;;6293849;28;20043;-83
2023/09/13 09:58:01;;;;;;;0.00;0.00;;;;;;;;;;6284064;28;20027;-83
2023/09/13 10:01:02;;;;;;;0.00;0.00;;;;;;;;;;6302083;28;20124;-84
2023/09/13 10:04:09;;;;;;;0.00;0.00;;;;;;;;;;6284986;28;20427;-83
2023/09/13 10:07:10;;;;;;;0.00;0.00;;;;;;;;;;6310431;28;20036;-83
2023/09/13 10:10:26;;;;;;;0.00;0.00;;;;;;;;;;6275013;28;20043;-84
2023/09/13 10:13:26;;;;;;;0.00;0.00;;;;;;;;;;6287862;28;20052;-84
2023/09/13 10:16:29;;;;;;;0.00;0.00;;;;;;;;;;6280207;28;20036;-84
2023/09/13 10:19:29;;;;;;;0.00;0.00;;;;;;;;;;6271473;28;20052;-83
2023/09/13 10:22:30;;;;;;;0.00;0.00;;;;;;;;;;6298359;28;20020;-84
2023/09/13 10:25:31;;;;;;;;;;;;;;;;;;6272896;28;20409;-84
2023/09/13 10:28:32;;;;;;;0.00;0.00;;;;;;;;;;6274498;28;19959;-84
2023/09/13 10:31:35;;;;;;;0.00;0.00;;;;;;;;;;6280403;28;20016;-83
2023/09/13 10:34:35;;;;;;;0.00;0.00;;;;;;;;;;6278541;28;20605;-83
2023/09/13 10:37:45;;;;;;;0.00;0.00;;;;;;;;;;6283315;28;20017;-84
2023/09/13 10:40:50;;;;;;;0.00;0.00;;;;;;;;;;6297429;28;20021;-84
2023/09/13 10:43:51;;;;;;;0.00;0.00;;;;;;;;;;6271824;28;20457;-84
2023/09/13 10:46:51;;;;;;;0.00;0.00;;;;;;;;;;6281369;28;20027;-84
2023/09/13 10:49:52;;;;;;;0.00;0.00;;;;;;;;;;6284818;28;20030;-84
2023/09/13 10:52:53;;;;;;;0.00;0.00;;;;;;;;;;6274715;28;20023;-84
2023/09/13 10:55:53;;;;;;;0.00;0.00;;;;;;;;;;6295572;28;20016;-84
2023/09/13 10:58:53;;;;;;;0.00;0.00;;;;;;;;;;6279358;28;20065;-84
2023/09/13 11:01:53;;;;;;;0.00;0.00;;;;;;;;;;6302372;28;20460;-84
2023/09/13 11:04:54;;;;;;;0.00;0.00;;;;;;;;;;6284671;28;20032;-86
2023/09/13 11:07:54;;;;;;;0.00;0.00;;;;;;;;;;6285132;28;20036;-83
2023/09/13 11:10:55;;;;;;;0.00;0.00;;;;;;;;;;6268134;28;20023;-83
2023/09/13 11:13:57;;;;;;;0.00;0.00;;;;;;;;;;6291469;28;20466;-82
2023/09/13 11:17:08;;;;;;;0.00;0.00;;;;;;;;;;6268430;28;20094;-83
2023/09/13 11:20:28;;;;;;;0.00;0.00;;;;;;;;;;6264085;28;20017;-83
2023/09/13 11:23:41;;;;;;;0.00;0.00;;;;;;;;;;6278002;28;20032;-83
2023/09/13 11:26:47;;;;;;;0.00;0.00;;;;;;;;;;6296612;28;20024;-83
2023/09/13 11:29:51;;;;;;;0.00;0.00;;;;;;;;;;6269049;28;20024;-83
2023/09/13 11:32:52;;;;;;;0.00;0.00;;;;;;;;;;6269469;28;20049;-83
2023/09/13 11:35:53;;;;;;;0.00;0.00;;;;;;;;;;6286504;28;20065;-83
2023/09/13 11:38:55;;;;;;;0.00;0.00;;;;;;;;;;6289435;28;20016;-83
2023/09/13 11:41:56;;;;;;;0.00;0.00;;;;;;;;;;6283995;28;20017;-83
2023/09/13 11:44:57;;;;;;;0.00;0.00;;;;;;;;;;6270745;28;20071;-82
2023/09/13 11:47:57;;;;;;;0.00;0.00;;;;;;;;;;6300774;28;20017;-83
2023/09/13 11:51:07;;;;;;;0.00;0.00;;;;;;;;;;6283171;28;20103;-83
2023/09/13 11:54:15;;;;;;;0.00;0.00;;;;;;;;;;6260516;28;20056;-82
2023/09/13 11:57:17;;;;;;;0.00;0.00;;;;;;;;;;6271049;28;20024;-86
2023/09/13 12:00:22;;;;;;;0.00;0.00;;;;;;;;;;6288883;28;20028;-85
2023/09/13 12:03:22;;;;;;;0.00;0.00;;;;;;;;;;6273397;28;20024;-85
2023/09/13 12:06:23;;;;;;;0.00;0.00;;;;;;;;;;6293186;28;20529;-85
2023/09/13 12:09:23;;;;;;;0.00;0.00;;;;;;;;;;6282653;28;20027;-84
2023/09/13 12:12:24;;;;;;;0.00;0.00;;;;;;;;;;6296679;28;20791;-85
2023/09/13 12:15:25;;;;;;;0.00;0.00;;;;;;;;;;6276439;28;20495;-83
2023/09/13 12:18:25;;;;;;;0.00;0.00;;;;;;;;;;6296510;28;20475;-84
2023/09/13 12:21:25;;;;;;;0.00;0.00;;;;;;;;;;6270900;28;20058;-82
2023/09/13 12:24:26;;;;;;;0.00;0.00;;;;;;;;;;6297230;28;20024;-83
2023/09/13 12:27:28;;;;;;;0.00;0.00;;;;;;;;;;6301860;28;20024;-83
2023/09/13 12:30:29;;;;;;;0.00;0.00;;;;;;;;;;6272556;28;20043;-83
2023/09/13 12:33:29;;;;;;;0.00;0.00;;;;;;;;;;6278983;28;20486;-84
2023/09/13 12:36:29;;;;;;;0.00;0.00;;;;;;;;;;6284219;28;20021;-83
2023/09/13 12:39:30;;;;;;;0.00;0.00;;;;;;;;;;6275121;28;20542;-83
2023/09/13 12:42:30;;;;;;;0.00;0.00;;;;;;;;;;6294619;28;20494;-84
2023/09/13 12:45:32;;;;;;;0.00;0.00;;;;;;;;;;6308499;28;20035;-84
2023/09/13 12:48:32;;;;;;;0.00;0.00;;;;;;;;;;6298311;28;20438;-83
2023/09/13 12:51:34;;;;;;;0.00;0.00;;;;;;;;;;6279976;28;20083;-83
2023/09/13 12:54:34;;;;;;;0.00;0.00;;;;;;;;;;6311965;28;20087;-83
2023/09/13 12:57:34;;;;;;;0.00;0.00;;;;;;;;;;6295643;28;20048;-83
2023/09/13 13:00:49;;;;;;;0.00;0.00;;;;;;;;;;6295661;28;20024;-83
2023/09/13 13:04:01;;;;;;;0.00;0.00;;;;;;;;;;6289592;28;20051;-83
2023/09/13 13:07:03;;;;;;;0.00;0.00;;;;;;;;;;6255049;28;20040;-84
2023/09/13 13:10:04;;;;;;;0.00;0.00;;;;;;;;;;6282714;28;20033;-83
2023/09/13 13:13:04;;;;;;;0.00;0.00;;;;;;;;;;6276742;28;20055;-83
2023/09/13 13:16:18;;;;;;;0.00;0.00;;;;;;;;;;6262178;28;20504;-83
2023/09/13 13:19:35;;;;;;;0.00;0.00;;;;;;;;;;6263916;28;20313;-83
2023/09/13 13:22:36;;;;;;;0.00;0.00;;;;;;;;;;6269154;28;20438;-80
2023/09/13 13:25:36;;;;;;;0.00;0.00;;;;;;;;;;6256400;28;20128;-83
2023/09/13 13:28:36;;;;;;;0.00;0.00;;;;;;;;;;6272085;28;20067;-83
2023/09/13 13:31:36;;;;;;;0.00;0.00;;;;;;;;;;6265333;28;20083;-83
2023/09/13 13:34:36;;;;;;;0.00;0.00;;;;;;;;;;6283083;28;20033;-83
2023/09/13 13:37:42;;;;;;;0.00;0.00;;;;;;;;;;6258751;28;20481;-84
2023/09/13 13:40:43;;;;;;;0.00;0.00;;;;;;;;;;6275593;28;20013;-83
2023/09/13 13:43:43;;;;;;;0.00;0.00;;;;;;;;;;6264717;28;20037;-84
2023/09/13 13:46:44;;;;;;;0.00;0.00;;;;;;;;;;6257965;28;20107;-83
2023/09/13 13:49:44;;;;;;;0.00;0.00;;;;;;;;;;6269444;28;20040;-83
2023/09/13 13:52:45;;;;;;;0.00;0.00;;;;;;;;;;6268525;28;20086;-84
2023/09/13 13:55:45;;;;;;;0.00;0.00;;;;;;;;;;6273406;28;20032;-84
2023/09/13 13:58:45;;;;;;;0.00;0.00;;;;;;;;;;6267292;28;20029;-84
2023/09/13 14:01:46;;;;;;;0.00;0.00;;;;;;;;;;6268838;28;20052;-84
2023/09/13 14:04:47;;;;;;;0.00;0.00;;;;;;;;;;6244828;28;20021;-84
2023/09/13 14:07:47;;;;;;;0.00;0.00;;;;;;;;;;6279214;28;20032;-84
2023/09/13 14:10:47;;;;;;;0.00;0.00;;;;;;;;;;6319705;28;20034;-84
2023/09/13 14:13:48;;;;;;;0.00;0.00;;;;;;;;;;6296227;28;20020;-84
2023/09/13 14:16:48;;;;;;;0.00;0.00;;;;;;;;;;6298476;28;20024;-84
2023/09/13 14:19:49;;;;;;;0.00;0.00;;;;;;;;;;6290062;28;20489;-84
2023/09/13 14:22:49;;;;;;;0.00;0.00;;;;;;;;;;6285017;28;20031;-84
2023/09/13 14:25:49;;;;;;;0.00;0.00;;;;;;;;;;6294547;28;20099;-83
2023/09/13 14:28:50;;;;;;;0.00;0.00;;;;;;;;;;6301378;28;20017;-84
2023/09/13 14:31:55;;;;;;;0.00;0.00;;;;;;;;;;6283266;28;20043;-84
2023/09/13 14:34:59;;;;;;;0.00;0.00;;;;;;;;;;6288791;28;20025;-84
2023/09/13 14:38:00;;;;;;;0.00;0.00;;;;;;;;;;6304219;28;20020;-84
2023/09/13 14:41:00;;;;;;;0.00;0.00;;;;;;;;;;6293316;28;20128;-84
2023/09/13 14:44:00;;;;;;;0.00;0.00;;;;;;;;;;6288549;28;20036;-84
2023/09/13 14:47:01;;;;;;;0.00;0.00;;;;;;;;;;6295563;28;20505;-83
2023/09/13 14:50:01;;;;;;;0.00;0.00;;;;;;;;;;6272397;28;20587;-84
2023/09/13 14:53:02;;;;;;;0.00;0.00;;;;;;;;;;6284072;28;20039;-84
2023/09/13 14:56:02;;;;;;;0.00;0.00;;;;;;;;;;6280669;28;20025;-85
2023/09/13 14:59:02;;;;;;;0.00;0.00;;;;;;;;;;6297074;28;20020;-84
2023/09/13 15:02:03;;;;;;;0.00;0.00;;;;;;;;;;6289896;28;20458;-84
2023/09/13 15:05:07;;;;;;;0.00;0.00;;;;;;;;;;6295749;28;20023;-83
2023/09/13 15:08:07;;;;;;;0.00;0.00;;;;;;;;;;6298376;28;20120;-84
2023/09/13 15:11:10;;;;;;;0.00;0.00;;;;;;;;;;6277223;28;20020;-83
2023/09/13 15:14:11;;;;;;;0.00;0.00;;;;;;;;;;6286057;28;20028;-84
2023/09/13 15:17:12;;;;;;;0.00;0.00;;;;;;;;;;6281363;28;20087;-84
2023/09/13 15:20:14;;;;;;;0.00;0.00;;;;;;;;;;6286217;28;20052;-83
2023/09/13 15:23:14;;;;;;;0.00;0.00;;;;;;;;;;6278157;28;20458;-83
2023/09/13 15:26:14;;;;;;;0.00;0.00;;;;;;;;;;6300132;28;20031;-83
2023/09/13 15:29:14;;;;;;;0.00;0.00;;;;;;;;;;6301261;28;20052;-85
2023/09/13 15:32:15;;;;;;;0.00;0.00;;;;;;;;;;6294491;28;20013;-84
2023/09/13 15:35:15;;;;;;;0.00;0.00;;;;;;;;;;6288135;28;20020;-85
2023/09/13 15:38:18;;;;;;;0.00;0.00;;;;;;;;;;6295933;28;20023;-84
2023/09/13 15:41:18;;;;;;;0.00;0.00;;;;;;;;;;6276189;28;20111;-83
2023/09/13 15:44:18;;;;;;;0.00;0.00;;;;;;;;;;6300191;28;20031;-84
2023/09/13 15:47:19;;;;;;;0.00;0.00;;;;;;;;;;6300221;28;20107;-84
2023/09/13 15:50:19;;;;;;;0.00;0.00;;;;;;;;;;6275211;28;20009;-83
2023/09/13 15:53:19;;;;;;;;;;;;;;;;;;6272965;28;20021;-83
2023/09/13 15:56:19;;;;;;;0.00;0.00;;;;;;;;;;6279072;28;20382;-83
2023/09/13 15:59:20;;;;;;;;;;;;;;;;;;6292720;28;20532;-84
2023/09/13 16:02:20;;;;;;;0.00;0.00;;;;;;;;;;6271719;28;20290;-83
2023/09/13 16:05:20;;;;;;;;;;;;;;;;;;6297227;28;20024;-83
2023/09/13 16:08:20;;;;;;;0.00;0.00;;;;;;;;;;6282850;28;19916;-83
2023/09/13 16:11:20;;;;;;;;;;;;;;;;;;6302754;28;20426;-83
2023/09/13 16:14:34;;;;;;;0.00;0.00;;;;;;;;;;6305252;28;19915;-83
2023/09/13 16:17:35;;;;;;;0.00;0.00;;;;;;;;;;6264719;28;20027;-84
2023/09/13 16:20:36;;;;;;;0.00;0.00;;;;;;;;;;6276302;28;20025;-83
2023/09/13 16:23:36;;;;;;;0.00;0.00;;;;;;;;;;6274898;28;20399;-84
2023/09/13 16:26:36;;;;;;;0.00;0.00;;;;;;;;;;6305212;28;20027;-83
2023/09/13 16:29:38;;;;;;;0.00;0.00;;;;;;;;;;6275663;28;20099;-82
2023/09/13 16:32:38;;;;;;;0.00;0.00;;;;;;;;;;6297081;28;20020;-83
2023/09/13 16:35:38;;;;;;;0.00;0.00;;;;;;;;;;6308554;28;20024;-84
2023/09/13 16:38:39;;;;;;;0.00;0.00;;;;;;;;;;6308254;28;20512;-85
2023/09/13 16:41:40;;;;;;;0.00;0.00;;;;;;;;;;6266302;28;20043;-84
2023/09/13 16:44:40;;;;;;;0.00;0.00;;;;;;;;;;6285288;28;20509;-84
2023/09/13 16:47:40;;;;;;;0.00;0.00;;;;;;;;;;6287074;28;20028;-89
2023/09/13 16:50:41;;;;;;;0.00;0.00;;;;;;;;;;6283251;28;20766;-89
2023/09/13 16:53:41;;;;;;;0.00;0.00;;;;;;;;;;6294071;28;20834;-90
2023/09/13 16:56:41;;;;;;;0.00;0.00;;;;;;;;;;6288880;28;20485;-90
2023/09/13 16:59:42;;;;;;;0.00;0.00;;;;;;;;;;6283528;28;20038;-90
2023/09/13 17:02:42;;;;;;;;;;;;;;;;;;6287275;28;20031;-90
2023/09/13 17:05:43;;;;;;;0.00;0.00;;;;;;;;;;6285688;28;20006;-89
2023/09/13 17:08:43;;;;;;;0.00;0.00;;;;;;;;;;6276242;28;20532;-89
2023/09/13 17:11:44;;;;;;;0.00;0.00;;;;;;;;;;6287956;28;20028;-90
2023/09/13 17:14:44;;;;;;;0.00;0.00;;;;;;;;;;6283447;28;20025;-90
2023/09/13 17:17:44;;;;;;;0.00;0.00;;;;;;;;;;6275057;28;20026;-90
2023/09/13 17:20:45;;;;;;;0.00;0.00;;;;;;;;;;6274869;28;20026;-89
2023/09/13 17:23:45;;;;;;;0.00;0.00;;;;;;;;;;6273158;28;20017;-90
2023/09/13 17:26:48;;;;;;;0.00;0.00;;;;;;;;;;6256060;28;20024;-89
2023/09/13 17:29:48;;;;;;;0.00;0.00;;;;;;;;;;6271270;28;20522;-89
2023/09/13 17:32:49;;;;;;;0.00;0.00;;;;;;;;;;6302536;28;20019;-89
2023/09/13 17:35:49;;;;;;;0.00;0.00;;;;;;;;;;6297439;28;20474;-89
2023/09/13 17:38:50;;;;;;;0.00;0.00;;;;;;;;;;6292231;28;20013;-90
2023/09/13 17:41:52;;;;;;;0.00;0.00;;;;;;;;;;6287055;28;20542;-90
2023/09/13 17:44:52;;;;;;;0.00;0.00;;;;;;;;;;6268195;28;20033;-89
2023/09/13 17:47:53;;;;;;;0.00;0.00;;;;;;;;;;6285774;28;20532;-89
2023/09/13 17:50:56;;;;;;;0.00;0.00;;;;;;;;;;6275042;28;20115;-89
2023/09/13 17:53:57;;;;;;;0.00;0.00;;;;;;;;;;6270687;28;20274;-89
2023/09/13 17:56:57;;;;;;;0.00;0.00;;;;;;;;;;6275690;28;20029;-90
2023/09/13 17:59:58;;;;;;;0.00;0.00;;;;;;;;;;6267337;28;20020;-90
2023/09/13 18:02:59;;;;;;;0.00;0.00;;;;;;;;;;6275285;28;20068;-89
2023/09/13 18:06:03;;;;;;;0.00;0.00;;;;;;;;;;6284966;28;20016;-86
2023/09/13 18:09:03;;;;;;;0.00;0.00;;;;;;;;;;6282769;28;21571;-86
2023/09/13 18:12:03;;;;;;;0.00;0.00;;;;;;;;;;6267230;28;20024;-90
2023/09/13 18:15:04;;;;;;;0.00;0.00;;;;;;;;;;6283967;28;20615;-90
2023/09/13 18:18:04;;;;;;;0.00;0.00;;;;;;;;;;6272541;28;20077;-89